Time;durP1;ratioP1;P1;durP2;ratioP2;P2;SDS_P1;SDS_P2;PMS_P1;PMS_P2;Temp;Humidity;BMP_temperature;BMP_pressure;BME280_temperature;BME280_humidity;BME280_pressure;Samples;Min_cycle;Max_cycle;Signal;HPM_P1;HPM_P2
2022/02/09 00:00:27;;;;;;;6.13;3.23;;;;;;;4.96;100.00;100696.53;15275546;19;20178;-53
2022/02/09 00:05:42;;;;;;;6.03;3.13;;;;;;;4.90;100.00;100712.63;15278778;19;20144;-51
2022/02/09 00:10:49;;;;;;;5.97;2.97;;;;;;;4.91;100.00;100723.16;15255301;19;20145;-52
2022/02/09 00:16:03;;;;;;;7.87;3.40;;;;;;;4.90;100.00;100732.00;15264917;19;20153;-53
2022/02/09 00:21:26;;;;;;;8.37;3.20;;;;;;;4.88;100.00;100739.13;15276458;19;20541;-50
2022/02/09 00:32:14;;;;;;;6.43;3.00;;;;;;;4.79;100.00;100773.81;15257765;19;20145;-50
2022/02/09 00:37:42;;;;;;;8.33;3.07;;;;;;;4.80;100.00;100783.47;15258483;19;20156;-52
2022/02/09 00:59:10;;;;;;;4.87;2.80;;;;;;;4.60;100.00;100802.59;15249997;19;20180;-50
2022/02/09 01:57:21;;;;;;;9.13;3.40;;;;;;;4.04;100.00;100827.28;15288273;19;20184;-50
2022/02/09 02:02:25;;;;;;;5.87;3.23;;;;;;;4.00;100.00;100839.69;15266414;19;20148;-51
2022/02/09 02:07:40;;;;;;;8.23;3.60;;;;;;;3.96;100.00;100841.56;15271663;19;21150;-49
2022/02/09 02:12:54;;;;;;;9.03;3.97;;;;;;;4.16;100.00;100861.25;15285850;19;20137;-48
2022/02/09 02:17:59;;;;;;;8.83;4.20;;;;;;;4.46;100.00;100865.63;15287549;19;20151;-49
2022/02/09 02:23:27;;;;;;;11.13;5.07;;;;;;;4.67;100.00;100870.25;15275161;19;20137;-50
2022/02/09 02:34:09;;;;;;;8.77;4.80;;;;;;;5.13;100.00;100870.53;15284877;19;20148;-49
2022/02/09 02:39:43;;;;;;;8.87;4.90;;;;;;;5.25;100.00;100873.63;15283792;19;20176;-50
2022/02/09 03:11:36;;;;;;;8.43;5.57;;;;;;;5.02;100.00;100878.84;15253966;19;20173;-48
2022/02/09 03:16:45;;;;;;;9.43;6.50;;;;;;;4.74;100.00;100880.63;15272397;19;20145;-51
2022/02/09 03:22:00;;;;;;;11.53;6.73;;;;;;;4.54;100.00;100876.81;15278534;19;20364;-48
2022/02/09 03:43:05;;;;;;;8.60;7.13;;;;;;;4.23;100.00;100891.84;15278328;19;20148;-48
2022/02/09 03:48:37;;;;;;;15.73;7.77;;;;;;;4.12;100.00;100900.06;15279674;19;20157;-48
2022/02/09 03:54:02;;;;;;;13.77;7.67;;;;;;;3.92;100.00;100895.38;15269291;19;20216;-51
2022/02/09 03:59:07;;;;;;;14.40;8.87;;;;;;;3.72;100.00;100905.63;15294030;19;20144;-49
2022/02/09 04:04:12;;;;;;;13.67;8.90;;;;;;;3.61;100.00;100907.69;15283791;19;20141;-50
2022/02/09 04:09:19;;;;;;;20.63;9.53;;;;;;;3.55;100.00;100908.69;15288265;19;20143;-48
2022/02/09 04:14:31;;;;;;;15.77;9.03;;;;;;;3.54;100.00;100914.00;15286557;19;20172;-50
2022/02/09 04:19:45;;;;;;;12.60;8.10;;;;;;;3.49;100.00;100908.00;15279921;19;20165;-47
2022/02/09 04:51:22;;;;;;;12.47;6.83;;;;;;;3.35;100.00;100910.13;15248977;19;20219;-50
2022/02/09 04:56:39;;;;;;;10.27;7.33;;;;;;;3.41;100.00;100920.50;15274832;19;20143;-49
2022/02/09 05:23:24;;;;;;;13.03;7.80;;;;;;;4.01;100.00;100939.13;15285482;19;20144;-50
2022/02/09 05:28:28;;;;;;;13.83;8.07;;;;;;;4.10;100.00;100930.09;15287056;19;20137;-51
2022/02/09 05:33:33;;;;;;;11.50;7.57;;;;;;;4.23;100.00;100934.09;15249551;19;20169;-50
2022/02/09 05:38:37;;;;;;;13.20;7.00;;;;;;;4.35;100.00;100939.03;15271875;19;20177;-49
2022/02/09 05:43:42;;;;;;;9.93;6.40;;;;;;;4.37;100.00;100926.66;15284424;19;20153;-50
2022/02/09 05:54:20;;;;;;;14.07;6.73;;;;;;;4.37;100.00;100942.50;15260184;19;20223;-50
2022/02/09 05:59:29;;;;;;;10.57;6.17;;;;;;;4.29;100.00;100953.31;15270445;19;20149;-48
2022/02/09 06:04:38;;;;;;;11.77;6.50;;;;;;;4.30;100.00;100956.81;15281108;19;20181;-50
2022/02/09 06:09:42;;;;;;;10.23;6.40;;;;;;;4.26;100.00;100949.88;15285527;19;20141;-51
2022/02/09 06:15:12;;;;;;;12.23;6.20;;;;;;;4.17;100.00;100961.56;15278934;19;20152;-48
2022/02/09 06:20:17;;;;;;;10.63;6.03;;;;;;;4.07;100.00;100938.09;15259400;19;20184;-48
2022/02/09 06:25:23;;;;;;;11.13;6.10;;;;;;;3.95;100.00;100942.81;15276705;19;20164;-49
2022/02/09 06:30:29;;;;;;;15.47;6.57;;;;;;;3.88;100.00;100953.56;15281391;19;20201;-48
2022/02/09 06:35:33;;;;;;;15.43;6.53;;;;;;;3.78;100.00;100973.19;15272948;19;20159;-48
2022/02/09 06:40:43;;;;;;;9.40;6.67;;;;;;;3.77;100.00;100982.88;15249239;19;20158;-51
2022/02/09 06:45:47;;;;;;;9.07;7.17;;;;;;;3.73;100.00;100980.38;15262494;19;20149;-49
2022/02/09 06:50:56;;;;;;;14.37;7.70;;;;;;;3.72;100.00;100984.81;15277696;19;20192;-50
2022/02/09 06:56:02;;;;;;;16.10;6.90;;;;;;;3.74;100.00;100990.91;15281905;19;20589;-49
2022/02/09 07:01:09;;;;;;;10.33;6.40;;;;;;;3.82;100.00;100988.94;15266841;19;20168;-48
2022/02/09 07:06:13;;;;;;;9.43;6.67;;;;;;;3.92;100.00;100981.63;15254955;19;20164;-49
2022/02/09 07:11:17;;;;;;;12.87;6.97;;;;;;;4.05;100.00;100982.16;15282647;19;20692;-51
2022/02/09 07:16:23;;;;;;;8.50;5.73;;;;;;;4.16;100.00;100988.03;15282605;19;20166;-49
2022/02/09 07:21:31;;;;;;;11.77;6.20;;;;;;;4.23;100.00;100998.38;15278684;19;20148;-52
2022/02/09 07:26:49;;;;;;;11.17;6.27;;;;;;;4.42;100.00;101004.03;15249587;19;20169;-51
2022/02/09 07:31:53;;;;;;;10.43;6.03;;;;;;;4.57;100.00;101002.72;15273284;19;20232;-51
2022/02/09 07:36:58;;;;;;;10.87;6.40;;;;;;;4.70;100.00;101012.03;15279658;19;20148;-50
2022/02/09 07:42:09;;;;;;;11.73;6.13;;;;;;;4.88;100.00;101008.84;15279748;19;20243;-51
2022/02/09 07:47:33;;;;;;;10.83;6.23;;;;;;;5.08;100.00;100995.00;15257359;19;20601;-52
2022/02/09 07:52:49;;;;;;;7.97;6.13;;;;;;;5.30;100.00;100998.75;15261722;19;20917;-50
2022/02/09 07:57:55;;;;;;;8.70;5.80;;;;;;;5.49;100.00;101000.78;15281751;19;20144;-52
2022/02/09 08:02:59;;;;;;;9.87;5.87;;;;;;;5.66;100.00;101003.75;15278109;19;20157;-50
2022/02/09 08:08:04;;;;;;;33.93;8.03;;;;;;;6.00;100.00;101012.31;15269191;19;20160;-52
2022/02/09 08:29:42;;;;;;;10.90;6.63;;;;;;;7.19;100.00;100999.94;15275897;19;20155;-52
2022/02/09 08:34:47;;;;;;;10.50;6.27;;;;;;;7.23;100.00;100990.94;15250131;19;20525;-48
2022/02/09 08:39:54;;;;;;;15.60;6.80;;;;;;;7.51;100.00;100988.88;15270815;19;20161;-50
2022/02/09 08:44:58;;;;;;;10.67;6.40;;;;;;;7.92;100.00;100987.16;15275344;19;20162;-48
2022/02/09 08:50:23;;;;;;;14.10;6.30;;;;;;;8.21;100.00;100983.22;15275430;19;20286;-50
2022/02/09 08:55:28;;;;;;;62.33;13.30;;;;;;;8.37;100.00;100982.59;15253768;19;20155;-52
2022/02/09 09:00:36;;;;;;;17.67;7.73;;;;;;;8.43;100.00;100982.34;15260741;19;20279;-52
2022/02/09 09:05:49;;;;;;;7.40;5.07;;;;;;;8.64;100.00;100976.03;15272222;19;20173;-50
2022/02/09 09:11:17;;;;;;;7.10;4.60;;;;;;;8.91;100.00;100966.78;15275739;19;20140;-51
2022/02/09 10:04:41;;;;;;;8.43;7.63;;;;;;;10.19;100.00;100991.53;15253371;19;20902;-50
2022/02/09 10:36:55;;;;;;;13.33;6.83;;;;;;;10.93;100.00;100950.13;15285830;19;20157;-52
2022/02/09 10:42:13;;;;;;;10.73;6.67;;;;;;;10.88;100.00;100941.50;15284235;19;20156;-50
2022/02/09 10:47:34;;;;;;;9.30;6.07;;;;;;;10.79;100.00;100939.38;15264795;19;20149;-49
2022/02/09 10:52:40;;;;;;;7.03;6.40;;;;;;;10.46;100.00;100937.59;15259460;19;20206;-52
2022/02/09 10:57:46;;;;;;;7.77;6.20;;;;;;;10.23;100.00;100937.97;15283639;19;20141;-51
2022/02/09 11:02:51;;;;;;;8.00;7.07;;;;;;;9.86;100.00;100932.78;15283176;19;20630;-50
2022/02/09 11:07:57;;;;;;;7.17;6.47;;;;;;;9.59;100.00;100930.59;15278862;19;20647;-52
2022/02/09 11:13:04;;;;;;;7.77;6.20;;;;;;;9.54;100.00;100921.94;15255533;19;20153;-51
2022/02/09 11:18:12;;;;;;;9.30;6.20;;;;;;;9.49;100.00;100910.69;15275969;19;20179;-50
2022/02/09 11:23:50;;;;;;;8.37;6.47;;;;;;;9.33;100.00;100899.06;15281161;19;20542;-49
2022/02/09 11:29:23;;;;;;;7.43;5.63;;;;;;;9.38;100.00;100900.56;15282559;19;20148;-52
2022/02/09 11:34:28;;;;;;;6.10;5.57;;;;;;;9.37;100.00;100904.16;15254553;19;20497;-50
2022/02/09 11:39:57;;;;;;;6.50;5.67;;;;;;;9.45;100.00;100901.09;15269672;19;20217;-49
2022/02/09 11:45:19;;;;;;;6.07;5.30;;;;;;;9.45;100.00;100901.09;15278691;19;20144;-50
2022/02/09 11:50:54;;;;;;;6.00;5.40;;;;;;;9.52;100.00;100894.56;15278300;19;20615;-51
2022/02/09 12:12:12;;;;;;;8.17;7.37;;;;;;;9.57;100.00;100879.16;15277058;19;20153;-50
2022/02/09 12:17:28;;;;;;;9.00;8.10;;;;;;;9.67;100.00;100880.41;15266142;19;20173;-49
2022/02/09 12:22:43;;;;;;;8.60;7.50;;;;;;;9.63;100.00;100873.53;15253080;19;20161;-51
2022/02/09 12:27:53;;;;;;;9.70;8.73;;;;;;;9.49;100.00;100876.06;15273099;19;20144;-52
2022/02/09 12:32:58;;;;;;;9.67;8.80;;;;;;;9.41;100.00;100872.06;15278269;19;21155;-50
2022/02/09 12:38:02;;;;;;;11.83;10.73;;;;;;;9.42;100.00;100868.47;15276062;19;20145;-52
2022/02/09 12:43:12;;;;;;;14.07;12.60;;;;;;;9.46;100.00;100865.53;15249415;19;20260;-51
2022/02/09 12:48:21;;;;;;;13.60;12.30;;;;;;;9.43;100.00;100860.34;15269938;19;20156;-50
2022/02/09 12:53:26;;;;;;;13.93;12.53;;;;;;;9.43;100.00;100863.03;15274104;19;20635;-51
2022/02/09 12:58:30;;;;;;;14.20;12.70;;;;;;;9.46;100.00;100870.00;15275035;19;20170;-50
2022/02/09 13:03:36;;;;;;;14.53;13.13;;;;;;;9.39;100.00;100853.47;15254405;19;20140;-48
2022/02/09 13:08:41;;;;;;;14.40;13.10;;;;;;;9.26;100.00;100847.06;15257713;19;20973;-47
2022/02/09 13:13:51;;;;;;;15.77;14.23;;;;;;;9.22;100.00;100862.31;15275482;19;20145;-52
2022/02/09 13:19:08;;;;;;;15.73;14.30;;;;;;;9.14;100.00;100856.50;15273980;19;20155;-48
2022/02/09 13:24:55;;;;;;;15.57;13.97;;;;;;;9.09;100.00;100870.97;15263654;19;20149;-50
2022/02/09 14:07:58;;;;;;;15.50;14.00;;;;;;;9.13;100.00;100824.63;15282766;19;20152;-49
2022/02/09 14:13:17;;;;;;;15.73;14.23;;;;;;;9.11;100.00;100834.50;15259035;19;20248;-51
2022/02/09 14:18:49;;;;;;;15.27;13.93;;;;;;;9.12;100.00;100828.25;15276634;19;20955;-54
2022/02/09 14:35:01;;;;;;;13.27;11.97;;;;;;;9.16;100.00;100814.72;15261007;19;20916;-51
2022/02/09 14:56:05;;;;;;;13.80;12.50;;;;;;;9.29;100.00;100825.59;15264856;19;21050;-52
2022/02/09 15:01:14;;;;;;;13.13;11.93;;;;;;;9.26;100.00;100793.78;15263629;19;20157;-53
2022/02/09 15:06:46;;;;;;;12.97;11.63;;;;;;;9.28;100.00;100818.53;15277399;19;20149;-54
2022/02/09 15:12:02;;;;;;;11.40;10.37;;;;;;;9.27;100.00;100832.81;15272798;19;20165;-51
2022/02/09 15:22:32;;;;;;;12.83;11.63;;;;;;;8.84;100.00;100845.56;15254117;19;20149;-53
2022/02/09 15:27:36;;;;;;;13.43;12.03;;;;;;;8.68;100.00;100841.94;15272604;19;20164;-51
2022/02/09 15:32:44;;;;;;;13.27;12.07;;;;;;;8.64;100.00;100832.38;15275083;19;20161;-49
2022/02/09 15:37:55;;;;;;;14.37;12.97;;;;;;;8.56;100.00;100834.56;15274859;19;20268;-52
2022/02/09 15:43:16;;;;;;;13.23;11.93;;;;;;;8.51;100.00;100842.72;15247139;19;20156;-51
2022/02/09 15:59:19;;;;;;;14.00;12.70;;;;;;;8.45;100.00;100842.19;15271150;19;20152;-49
2022/02/09 16:09:44;;;;;;;12.27;11.17;;;;;;;8.54;100.00;100828.44;15260343;19;20151;-50
2022/02/09 16:25:29;;;;;;;11.03;9.93;;;;;;;8.67;100.00;100842.88;15252841;19;20243;-48
2022/02/09 16:46:32;;;;;;;11.03;9.77;;;;;;;8.68;100.00;100823.31;15260044;19;20497;-48
2022/02/09 16:51:46;;;;;;;11.40;10.40;;;;;;;8.70;100.00;100816.09;15243744;19;21410;-50
2022/02/09 16:57:02;;;;;;;11.83;10.73;;;;;;;8.76;100.00;100831.78;15264512;19;20160;-49
2022/02/09 17:23:30;;;;;;;11.10;10.07;;;;;;;8.69;100.00;100802.91;15232244;19;20163;-50
2022/02/09 17:28:37;;;;;;;11.17;10.00;;;;;;;8.76;100.00;100810.50;15228345;19;20156;-49
2022/02/09 17:34:01;;;;;;;10.97;9.87;;;;;;;8.77;100.00;100806.91;15217805;19;20162;-48
2022/02/09 17:39:21;;;;;;;11.07;9.73;;;;;;;8.82;100.00;100799.53;15218460;19;20786;-49
2022/02/09 18:00:20;;;;;;;11.37;10.27;;;;;;;8.87;100.00;100810.81;15211323;19;20161;-50
2022/02/09 18:05:35;;;;;;;12.20;10.97;;;;;;;8.86;100.00;100810.91;15230873;19;20201;-50
2022/02/09 18:10:51;;;;;;;11.43;10.27;;;;;;;8.84;100.00;100813.63;15230951;19;20825;-48
2022/02/09 18:16:11;;;;;;;12.80;11.50;;;;;;;8.85;100.00;100815.34;15225437;19;20628;-48
2022/02/09 18:27:12;;;;;;;11.40;10.30;;;;;;;8.81;100.00;100796.97;15238113;19;20140;-49
2022/02/09 18:37:57;;;;;;;9.53;8.63;;;;;;;8.79;100.00;100810.34;15234313;19;20171;-49
2022/02/09 18:43:06;;;;;;;8.93;8.13;;;;;;;8.84;100.00;100797.66;15215736;19;20151;-48
2022/02/09 19:04:11;;;;;;;9.37;7.23;;;;;;;8.82;100.00;100796.00;15226096;19;20156;-49
2022/02/09 19:14:45;;;;;;;7.67;6.93;;;;;;;8.84;100.00;100800.31;15243373;19;20155;-48
2022/02/09 19:19:59;;;;;;;7.10;6.43;;;;;;;8.79;100.00;100802.38;15242454;19;20156;-50
2022/02/09 19:30:39;;;;;;;7.17;6.43;;;;;;;8.70;100.00;100805.44;15222299;19;20137;-51
2022/02/09 19:46:31;;;;;;;6.63;6.03;;;;;;;8.56;100.00;100813.25;15236369;19;20149;-51
2022/02/09 19:51:43;;;;;;;7.00;6.30;;;;;;;8.61;100.00;100816.56;15209382;19;20542;-51
2022/02/09 19:56:52;;;;;;;7.10;6.40;;;;;;;8.56;100.00;100823.91;15240625;19;20173;-50
2022/02/09 20:01:57;;;;;;;7.13;5.93;;;;;;;8.56;100.00;100834.56;15239042;19;20149;-51
2022/02/09 20:07:07;;;;;;;7.33;6.20;;;;;;;8.54;100.00;100828.44;15239571;19;20201;-48
2022/02/09 20:12:11;;;;;;;7.30;6.43;;;;;;;8.55;100.00;100827.50;15212748;19;20149;-51
2022/02/09 20:17:16;;;;;;;7.93;7.13;;;;;;;8.48;100.00;100826.03;15232287;19;20159;-49
2022/02/09 20:22:20;;;;;;;7.67;6.63;;;;;;;8.51;100.00;100842.72;15237233;19;20147;-50
2022/02/09 20:27:25;;;;;;;7.17;6.37;;;;;;;8.49;100.00;100830.44;15238342;19;20229;-50
2022/02/09 20:32:33;;;;;;;9.67;7.20;;;;;;;8.49;100.00;100838.41;15223622;19;20294;-50
2022/02/09 20:37:43;;;;;;;6.97;6.23;;;;;;;8.43;100.00;100836.06;15221219;19;21100;-50
2022/02/09 20:42:54;;;;;;;7.70;6.90;;;;;;;8.53;100.00;100824.03;15239246;19;20152;-49
2022/02/09 20:48:02;;;;;;;7.03;6.33;;;;;;;8.55;100.00;100832.81;15233953;19;20226;-51
2022/02/09 20:53:07;;;;;;;7.63;6.80;;;;;;;8.56;100.00;100826.56;15226523;19;20216;-51
2022/02/09 20:58:12;;;;;;;7.70;6.93;;;;;;;8.54;100.00;100826.63;15209769;19;20156;-51
2022/02/09 21:03:27;;;;;;;7.87;7.07;;;;;;;8.50;100.00;100826.84;15222602;19;20180;-50
2022/02/09 21:08:43;;;;;;;7.60;6.87;;;;;;;8.39;100.00;100834.47;15228989;19;20160;-50
2022/02/09 21:13:56;;;;;;;8.10;7.33;;;;;;;8.42;100.00;100826.34;15228822;19;20143;-49
2022/02/09 21:19:34;;;;;;;8.50;7.60;;;;;;;8.43;100.00;100838.72;15206945;19;20275;-50
2022/02/09 21:46:34;;;;;;;8.97;7.93;;;;;;;8.36;100.00;100831.94;15248720;19;21482;-51
2022/02/09 21:56:53;;;;;;;9.10;8.20;;;;;;;8.34;100.00;100829.34;15268070;19;20239;-48
2022/02/09 22:28:54;;;;;;;9.60;8.70;;;;;;;8.28;100.00;100793.25;15245780;19;20185;-48
2022/02/09 22:55:29;;;;;;;9.40;8.50;;;;;;;8.25;100.00;100788.09;15270788;19;20215;-50
2022/02/09 23:01:02;;;;;;;9.03;8.20;;;;;;;8.25;100.00;100788.09;15284703;19;20599;-50
2022/02/09 23:17:06;;;;;;;9.57;8.57;;;;;;;8.21;100.00;100806.94;15264019;19;20211;-51
